createdAt,value
2023-03-08T00:00:19.239Z,94254.28
2023-03-08T00:02:46.861Z,94249.25
2023-03-08T00:05:14.930Z,94256.59
2023-03-08T00:07:42.492Z,94260.19
2023-03-08T00:10:13.197Z,94261.91
2023-03-08T00:12:40.848Z,94258.38
2023-03-08T00:15:09.152Z,94252.16
2023-03-08T00:17:37.441Z,94253.78
2023-03-08T00:20:06.814Z,94245.34
2023-03-08T00:22:36.517Z,94256.75
2023-03-08T00:25:05.232Z,94262.16
2023-03-08T00:27:34.328Z,94278.50
2023-03-08T00:30:02.375Z,94274.34
2023-03-08T00:32:30.258Z,94261.97
2023-03-08T00:34:58.132Z,94273.69
2023-03-08T00:37:25.917Z,94279.41
2023-03-08T00:39:54.516Z,94284.75
2023-03-08T00:42:22.869Z,94280.25
2023-03-08T00:44:52.087Z,94285.16
2023-03-08T00:47:19.730Z,94286.63
2023-03-08T00:49:47.856Z,94291.50
2023-03-08T00:52:15.422Z,94293.22
2023-03-08T00:54:45.116Z,94299.00
2023-03-08T00:57:12.730Z,94288.97
2023-03-08T00:59:40.310Z,94293.03
2023-03-08T01:02:09.676Z,94292.75
2023-03-08T01:04:37.326Z,94286.91
2023-03-08T01:07:05.546Z,94279.50
2023-03-08T01:09:33.136Z,94285.47
2023-03-08T01:12:00.894Z,94282.63
2023-03-08T01:14:29.926Z,94283.41
2023-03-08T01:16:57.550Z,94277.56
2023-03-08T01:19:26.752Z,94279.50
2023-03-08T01:21:54.760Z,94286.16
2023-03-08T01:24:22.332Z,94280.47
2023-03-08T01:26:50.023Z,94281.16
2023-03-08T01:29:19.093Z,94259.53
2023-03-08T01:31:46.943Z,94255.84
2023-03-08T01:34:14.513Z,94249.63
2023-03-08T01:36:43.689Z,94246.09
2023-03-08T01:39:11.559Z,94238.25
2023-03-08T01:41:39.586Z,94239.75
2023-03-08T01:44:14.369Z,94236.16
2023-03-08T01:46:42.250Z,94233.59
2023-03-08T01:49:26.805Z,94223.75
2023-03-08T01:51:59.701Z,94231.25
2023-03-08T01:54:29.770Z,94222.28
2023-03-08T01:57:02.554Z,94218.88
2023-03-08T01:59:33.448Z,94222.72
2023-03-08T02:02:02.479Z,94219.81
2023-03-08T02:04:32.002Z,94211.22
2023-03-08T02:07:01.554Z,94210.22
2023-03-08T02:09:29.606Z,94209.28
2023-03-08T02:12:04.874Z,94203.28
2023-03-08T02:14:32.986Z,94199.38
2023-03-08T02:17:00.844Z,94203.28
2023-03-08T02:19:33.223Z,94204.28
2023-03-08T02:22:10.701Z,94201.19
2023-03-08T02:24:41.544Z,94199.22
2023-03-08T02:27:13.992Z,94195.31
2023-03-08T02:29:41.765Z,94191.16
2023-03-08T02:32:10.238Z,94189.66
2023-03-08T02:34:37.867Z,94180.38
2023-03-08T02:37:06.006Z,94171.25
2023-03-08T02:39:33.663Z,94173.56
2023-03-08T02:42:02.870Z,94176.09
2023-03-08T02:44:30.470Z,94169.13
2023-03-08T02:46:58.171Z,94166.81
2023-03-08T02:49:25.774Z,94158.22
2023-03-08T02:51:53.552Z,94162.31
2023-03-08T02:54:22.136Z,94163.66
2023-03-08T02:56:49.988Z,94162.66
2023-03-08T02:59:19.042Z,94158.97
2023-03-08T03:01:46.779Z,94152.69
2023-03-08T03:04:14.390Z,94146.34
2023-03-08T03:06:42.111Z,94147.41
2023-03-08T03:09:12.771Z,94151.13
2023-03-08T03:11:41.360Z,94157.47
2023-03-08T03:14:09.318Z,94152.53
2023-03-08T03:16:42.855Z,94152.53
2023-03-08T03:19:12.220Z,94139.50
2023-03-08T03:21:40.393Z,94148.63
2023-03-08T03:24:09.064Z,94139.19
2023-03-08T03:26:44.655Z,94132.31
2023-03-08T03:29:13.401Z,94144.47
2023-03-08T03:31:44.495Z,94146.53
2023-03-08T03:34:13.342Z,94149.50
2023-03-08T03:36:42.109Z,94136.72
2023-03-08T03:39:11.633Z,94133.22
2023-03-08T03:41:41.131Z,94138.38
2023-03-08T03:44:12.740Z,94130.47
2023-03-08T03:46:43.936Z,94119.72
2023-03-08T03:49:14.018Z,94127.47
2023-03-08T03:51:45.331Z,94136.56
2023-03-08T03:54:22.391Z,94132.28
2023-03-08T03:56:50.387Z,94138.22
2023-03-08T03:59:22.135Z,94132.22
2023-03-08T04:01:51.272Z,94128.63
2023-03-08T04:04:24.737Z,94123.97
2023-03-08T04:06:55.114Z,94114.78
2023-03-08T04:09:26.490Z,94117.06
2023-03-08T04:12:05.872Z,94104.38
2023-03-08T04:14:35.327Z,94104.03
2023-03-08T04:17:05.647Z,94089.22
2023-03-08T04:19:40.902Z,94091.75
2023-03-08T04:22:09.710Z,94091.25
2023-03-08T04:24:44.766Z,94086.88
2023-03-08T04:27:17.393Z,94077.06
2023-03-08T04:29:45.086Z,94081.28
2023-03-08T04:32:14.593Z,94074.28
2023-03-08T04:34:47.476Z,94074.16
2023-03-08T04:37:18.714Z,94065.63
2023-03-08T04:39:50.198Z,94064.22
2023-03-08T04:42:18.557Z,94058.00
2023-03-08T04:44:47.537Z,94052.34
2023-03-08T04:47:20.532Z,94045.00
2023-03-08T04:49:49.460Z,94039.28
2023-03-08T04:52:17.457Z,94038.28
2023-03-08T04:54:46.960Z,94032.53
2023-03-08T04:57:20.973Z,94029.00
2023-03-08T04:59:50.103Z,94031.78
2023-03-08T05:02:17.953Z,94025.06
2023-03-08T05:04:48.950Z,94024.47
2023-03-08T05:07:16.936Z,94024.91
2023-03-08T05:09:45.949Z,94012.31
2023-03-08T05:12:14.538Z,94010.56
2023-03-08T05:14:48.938Z,94012.72
2023-03-08T05:17:16.699Z,94018.56
2023-03-08T05:19:46.056Z,94022.78
2023-03-08T05:22:19.332Z,94016.63
2023-03-08T05:24:51.060Z,94007.50
2023-03-08T05:27:19.611Z,94006.91
2023-03-08T05:29:48.409Z,94006.09
2023-03-08T05:32:16.262Z,94004.63
2023-03-08T05:34:45.260Z,94002.88
2023-03-08T05:37:20.888Z,94010.53
2023-03-08T05:39:49.261Z,94013.47
2023-03-08T05:42:21.132Z,94013.06
2023-03-08T05:44:48.880Z,94005.19
2023-03-08T05:47:21.192Z,94000.72
2023-03-08T05:49:49.123Z,93995.31
2023-03-08T05:52:18.180Z,93994.53
2023-03-08T05:54:47.589Z,93988.72
2023-03-08T05:57:19.251Z,93993.84
2023-03-08T05:59:48.120Z,93985.53
2023-03-08T06:02:19.184Z,93997.78
2023-03-08T06:04:53.361Z,93988.88
2023-03-08T06:07:23.458Z,93994.09
2023-03-08T06:09:58.027Z,94003.00
2023-03-08T06:12:25.764Z,94003.91
2023-03-08T06:14:56.742Z,94015.59
2023-03-08T06:17:28.182Z,94012.72
2023-03-08T06:19:57.722Z,94007.69
2023-03-08T06:22:25.734Z,94013.97
2023-03-08T06:24:55.015Z,94011.97
2023-03-08T06:27:33.044Z,94003.53
2023-03-08T06:30:05.318Z,94005.53
2023-03-08T06:32:35.571Z,94011.06
2023-03-08T06:35:03.861Z,94010.66
2023-03-08T06:37:34.162Z,94013.16
2023-03-08T06:40:03.236Z,94013.63
2023-03-08T06:42:41.148Z,94006.22
2023-03-08T06:45:12.116Z,94005.16
2023-03-08T06:47:39.822Z,94009.91
2023-03-08T06:50:09.195Z,94011.38
2023-03-08T06:52:38.831Z,94011.72
2023-03-08T06:55:09.351Z,94014.75
2023-03-08T06:57:38.371Z,94004.88
2023-03-08T07:00:09.556Z,94010.41
2023-03-08T07:02:37.125Z,94003.47
2023-03-08T07:05:05.289Z,94006.78
2023-03-08T07:07:33.457Z,93991.56
2023-03-08T07:10:01.081Z,93985.94
2023-03-08T07:12:31.055Z,93981.84
2023-03-08T07:15:00.772Z,93977.13
2023-03-08T07:17:28.475Z,93973.53
2023-03-08T07:19:56.044Z,93972.28
2023-03-08T07:22:24.020Z,93978.06
2023-03-08T07:24:51.576Z,93970.28
2023-03-08T07:27:19.289Z,93971.59
2023-03-08T07:29:46.882Z,93960.81
2023-03-08T07:32:16.227Z,93960.91
2023-03-08T07:34:43.878Z,93941.84
2023-03-08T07:37:13.081Z,93948.22
2023-03-08T07:39:40.791Z,93960.91
2023-03-08T07:42:10.586Z,93962.13
2023-03-08T07:44:38.903Z,93953.81
2023-03-08T07:47:09.216Z,93939.78
2023-03-08T07:49:38.155Z,93926.75
2023-03-08T07:52:07.049Z,93934.25
2023-03-08T07:54:34.675Z,93925.41
2023-03-08T07:57:03.044Z,93908.38
2023-03-08T07:59:30.895Z,93890.06
2023-03-08T08:01:58.654Z,93878.78
2023-03-08T08:04:26.361Z,93887.56
2023-03-08T08:06:55.829Z,93889.06
2023-03-08T08:09:23.651Z,93879.81
2023-03-08T08:11:51.366Z,93874.38
2023-03-08T08:14:18.926Z,93881.97
2023-03-08T08:16:46.692Z,93873.81
2023-03-08T08:19:14.780Z,93858.31
2023-03-08T08:21:42.456Z,93858.69
2023-03-08T08:24:11.421Z,93851.09
2023-03-08T08:26:40.112Z,93847.09
2023-03-08T08:29:07.963Z,93844.69
2023-03-08T08:31:36.445Z,93841.47
2023-03-08T08:34:04.091Z,93844.22
2023-03-08T08:36:31.922Z,93829.78
2023-03-08T08:38:59.561Z,93822.16
2023-03-08T08:41:29.792Z,93822.50
2023-03-08T08:43:59.418Z,93818.06
2023-03-08T08:46:28.605Z,93814.66
2023-03-08T08:48:56.578Z,93806.59
2023-03-08T08:51:24.309Z,93804.38
2023-03-08T08:53:52.569Z,93798.28
2023-03-08T08:56:29.058Z,93797.88
2023-03-08T08:59:03.629Z,93794.06
2023-03-08T09:01:33.003Z,93791.41
2023-03-08T09:04:01.286Z,93793.41
2023-03-08T09:06:31.379Z,93774.00
2023-03-08T09:09:01.621Z,93767.91
2023-03-08T09:11:30.007Z,93762.66
2023-03-08T09:13:57.875Z,93760.84
2023-03-08T09:16:28.498Z,93754.38
2023-03-08T09:18:57.860Z,93762.81
2023-03-08T09:21:26.726Z,93753.69
2023-03-08T09:23:54.792Z,93735.09
2023-03-08T09:26:22.689Z,93745.19
2023-03-08T09:28:50.406Z,93747.13
2023-03-08T09:31:19.099Z,93742.22
2023-03-08T09:33:52.015Z,93731.91
2023-03-08T09:36:20.711Z,93723.19
2023-03-08T09:38:49.687Z,93718.94
2023-03-08T09:41:32.883Z,93734.66
2023-03-08T09:44:12.922Z,93744.59
2023-03-08T09:46:47.208Z,93740.56
2023-03-08T09:49:22.656Z,93749.16
2023-03-08T09:51:54.376Z,93748.00
2023-03-08T09:54:25.641Z,93755.13
2023-03-08T09:56:56.316Z,93767.47
2023-03-08T09:59:29.237Z,93767.09
2023-03-08T10:02:05.663Z,93768.00
2023-03-08T10:05:05.927Z,93770.53
2023-03-08T10:07:50.656Z,93767.78
2023-03-08T10:10:27.159Z,93768.38
2023-03-08T10:13:08.991Z,93747.38
2023-03-08T10:15:42.596Z,93753.88
2023-03-08T10:18:17.004Z,93745.84
2023-03-08T10:20:47.993Z,93728.91
2023-03-08T10:23:17.865Z,93741.88
2023-03-08T10:25:46.775Z,93742.66
2023-03-08T10:28:16.865Z,93742.25
2023-03-08T10:30:47.537Z,93722.56
2023-03-08T10:33:18.520Z,93715.06
2023-03-08T10:35:59.489Z,93712.69
2023-03-08T10:38:29.942Z,93716.91
2023-03-08T10:41:02.759Z,93703.94
2023-03-08T10:43:32.921Z,93705.50
2023-03-08T10:46:03.557Z,93712.59
2023-03-08T10:48:31.937Z,93706.34
2023-03-08T10:51:03.062Z,93709.53
2023-03-08T10:53:32.015Z,93704.31
2023-03-08T10:56:01.613Z,93706.66
2023-03-08T10:58:34.789Z,93704.25
2023-03-08T11:01:05.157Z,93702.34
2023-03-08T11:03:33.563Z,93702.97
2023-03-08T11:06:04.629Z,93692.53
2023-03-08T11:08:34.189Z,93696.31
2023-03-08T11:11:03.344Z,93702.34
2023-03-08T11:13:33.229Z,93697.97
2023-03-08T11:16:15.701Z,93690.28
2023-03-08T11:18:58.088Z,93679.66
2023-03-08T11:21:37.251Z,93672.19
2023-03-08T11:24:18.630Z,93683.50
2023-03-08T11:26:57.237Z,93682.19
2023-03-08T11:29:37.736Z,93675.56
2023-03-08T11:32:18.154Z,93679.97
2023-03-08T11:35:05.061Z,93686.16
2023-03-08T11:37:43.031Z,93679.88
2023-03-08T11:40:24.826Z,93682.78
2023-03-08T11:43:08.959Z,93677.06
2023-03-08T11:45:44.395Z,93663.47
2023-03-08T11:48:36.701Z,93676.56
2023-03-08T11:51:11.373Z,93647.59
2023-03-08T11:53:52.478Z,93640.16
2023-03-08T11:56:38.636Z,93629.84
2023-03-08T11:59:12.642Z,93628.72
2023-03-08T12:01:46.750Z,93623.28
2023-03-08T12:04:19.548Z,93615.53
2023-03-08T12:06:48.969Z,93629.41
2023-03-08T12:09:28.323Z,93655.47
2023-03-08T12:12:03.561Z,93620.88
2023-03-08T12:14:33.426Z,93641.06
2023-03-08T12:17:08.017Z,93621.38
2023-03-08T12:19:43.406Z,93661.81
2023-03-08T12:22:26.888Z,93631.00
2023-03-08T12:25:02.091Z,93611.97
2023-03-08T12:27:33.632Z,93646.03
2023-03-08T12:30:13.132Z,93627.22
2023-03-08T12:32:43.689Z,93621.56
2023-03-08T12:35:27.524Z,93643.94
2023-03-08T12:38:00.532Z,93628.91
2023-03-08T12:40:37.047Z,93643.16
2023-03-08T12:43:07.559Z,93621.38
2023-03-08T12:45:35.591Z,93606.38
2023-03-08T12:48:16.921Z,93614.72
2023-03-08T12:50:47.528Z,93612.16
2023-03-08T12:53:24.974Z,93603.00
2023-03-08T12:56:07.342Z,93603.47
2023-03-08T12:58:38.971Z,93571.41
2023-03-08T13:01:08.471Z,93586.44
2023-03-08T13:03:41.232Z,93593.03
2023-03-08T13:06:17.085Z,93635.34
2023-03-08T13:08:51.034Z,93612.72
2023-03-08T13:11:21.532Z,93622.25
2023-03-08T13:13:53.524Z,93628.78
2023-03-08T13:16:35.277Z,93646.09
2023-03-08T13:19:19.153Z,93638.44
2023-03-08T13:21:54.141Z,93649.38
2023-03-08T13:24:31.822Z,93635.25
2023-03-08T13:27:18.131Z,93630.28
2023-03-08T13:29:47.847Z,93654.03
2023-03-08T13:32:18.658Z,93648.94
2023-03-08T13:34:59.655Z,93649.28
2023-03-08T13:37:29.050Z,93651.41
2023-03-08T13:39:58.898Z,93622.78
2023-03-08T13:42:29.704Z,93632.63
2023-03-08T13:45:09.273Z,93640.72
2023-03-08T13:47:41.008Z,93635.16
2023-03-08T13:50:17.801Z,93635.91
2023-03-08T13:52:45.828Z,93625.56
2023-03-08T13:55:20.821Z,93658.06
2023-03-08T13:57:52.615Z,93648.50
2023-03-08T14:00:30.193Z,93644.00
2023-03-08T14:02:58.665Z,93636.53
2023-03-08T14:05:28.886Z,93670.53
2023-03-08T14:07:59.048Z,93657.38
2023-03-08T14:10:32.890Z,93659.25
2023-03-08T14:13:02.406Z,93643.03
2023-03-08T14:15:31.813Z,93668.31
2023-03-08T14:18:00.544Z,93650.03
2023-03-08T14:20:28.456Z,93646.25
2023-03-08T14:22:56.595Z,93641.06
2023-03-08T14:25:28.639Z,93634.75
2023-03-08T14:27:57.100Z,93638.06
2023-03-08T14:30:27.794Z,93629.03
2023-03-08T14:33:06.158Z,93642.44
2023-03-08T14:35:36.748Z,93646.56
2023-03-08T14:38:13.523Z,93631.72
2023-03-08T14:40:49.294Z,93633.47
2023-03-08T14:43:19.364Z,93625.56
2023-03-08T14:45:55.146Z,93604.94
2023-03-08T14:48:25.495Z,93605.00
2023-03-08T14:50:56.498Z,93603.50
2023-03-08T14:53:29.126Z,93580.94
2023-03-08T14:55:58.021Z,93600.13
2023-03-08T14:58:29.710Z,93603.56
2023-03-08T15:01:02.235Z,93576.19
2023-03-08T15:03:30.136Z,93583.44
2023-03-08T15:05:58.417Z,93579.13
2023-03-08T15:08:26.702Z,93573.34
2023-03-08T15:10:54.792Z,93569.13
2023-03-08T15:13:24.538Z,93569.31
2023-03-08T15:15:52.510Z,93571.72
2023-03-08T15:18:21.681Z,93566.41
2023-03-08T15:20:51.525Z,93558.84
2023-03-08T15:23:22.834Z,93564.63
2023-03-08T15:25:50.875Z,93548.88
2023-03-08T15:28:20.811Z,93550.44
2023-03-08T15:30:49.611Z,93548.88
2023-03-08T15:33:17.212Z,93538.91
2023-03-08T15:35:46.789Z,93532.00
2023-03-08T15:38:16.002Z,93531.34
2023-03-08T15:40:44.370Z,93523.41
2023-03-08T15:43:11.971Z,93526.53
2023-03-08T15:45:39.870Z,93506.94
2023-03-08T15:48:09.277Z,93530.31
2023-03-08T15:50:36.851Z,93536.06
2023-03-08T15:53:06.250Z,93532.16
2023-03-08T15:55:34.156Z,93520.84
2023-03-08T15:58:01.841Z,93506.06
2023-03-08T16:00:30.130Z,93508.97
2023-03-08T16:02:58.089Z,93520.06
2023-03-08T16:05:28.341Z,93510.50
2023-03-08T16:07:57.649Z,93494.94
2023-03-08T16:10:27.425Z,93505.38
2023-03-08T16:12:55.219Z,93494.31
2023-03-08T16:15:23.249Z,93489.03
2023-03-08T16:17:50.953Z,93502.78
2023-03-08T16:20:20.247Z,93478.28
2023-03-08T16:22:47.981Z,93482.50
2023-03-08T16:25:15.579Z,93487.19
2023-03-08T16:27:45.273Z,93498.00
2023-03-08T16:30:14.304Z,93493.22
2023-03-08T16:35:33.960Z,93512.75
2023-03-08T16:38:01.748Z,93507.63
2023-03-08T16:40:31.174Z,93503.28
2023-03-08T16:43:00.202Z,93517.88
2023-03-08T16:45:27.775Z,93504.59
2023-03-08T16:47:55.411Z,93505.53
2023-03-08T16:50:24.364Z,93508.41
2023-03-08T16:52:55.232Z,93521.78
2023-03-08T16:55:22.869Z,93520.75
2023-03-08T16:57:50.753Z,93503.38
2023-03-08T17:00:20.931Z,93475.63
2023-03-08T17:02:48.605Z,93530.84
2023-03-08T17:05:16.231Z,93532.28
2023-03-08T17:07:44.065Z,93542.91
2023-03-08T17:10:12.490Z,93543.31
2023-03-08T17:12:40.335Z,93538.66
2023-03-08T17:15:10.823Z,93531.31
2023-03-08T17:17:40.609Z,93541.88
2023-03-08T17:20:10.225Z,93548.75
2023-03-08T17:22:38.303Z,93570.66
2023-03-08T17:25:06.817Z,93552.50
2023-03-08T17:27:34.585Z,93552.78
2023-03-08T17:30:03.664Z,93549.09
2023-03-08T17:32:32.521Z,93561.69
2023-03-08T17:35:01.495Z,93558.94
2023-03-08T17:37:29.336Z,93556.44
2023-03-08T17:39:57.220Z,93557.00
2023-03-08T17:42:25.964Z,93564.00
2023-03-08T17:44:53.655Z,93553.31
2023-03-08T17:47:21.248Z,93558.16
2023-03-08T17:49:49.643Z,93560.22
2023-03-08T17:52:18.600Z,93572.63
2023-03-08T17:54:46.424Z,93570.91
2023-03-08T17:57:15.926Z,93575.59
2023-03-08T17:59:43.538Z,93580.16
2023-03-08T18:02:12.425Z,93570.44
2023-03-08T18:04:43.918Z,93575.81
2023-03-08T18:07:11.837Z,93570.44
2023-03-08T18:09:40.839Z,93572.97
2023-03-08T18:12:09.742Z,93570.66
2023-03-08T18:14:39.946Z,93582.69
2023-03-08T18:17:08.829Z,93578.56
2023-03-08T18:19:36.439Z,93578.91
2023-03-08T18:22:04.546Z,93591.72
2023-03-08T18:24:32.173Z,93607.63
2023-03-08T18:27:02.068Z,93582.09
2023-03-08T18:29:31.297Z,93592.53
2023-03-08T18:31:59.937Z,93594.13
2023-03-08T18:34:28.779Z,93593.44
2023-03-08T18:36:58.643Z,93589.66
2023-03-08T18:39:27.123Z,93596.28
2023-03-08T18:41:56.854Z,93604.53
2023-03-08T18:44:26.257Z,93627.75
2023-03-08T18:46:53.972Z,93598.44
2023-03-08T18:49:21.643Z,93589.28
2023-03-08T18:51:49.389Z,93606.81
2023-03-08T18:54:20.583Z,93616.41
2023-03-08T18:56:49.821Z,93616.13
2023-03-08T18:59:17.934Z,93589.75
2023-03-08T19:01:46.959Z,93592.41
2023-03-08T19:04:14.722Z,93594.59
2023-03-08T19:06:43.059Z,93598.94
2023-03-08T19:09:11.950Z,93575.72
2023-03-08T19:11:42.172Z,93582.78
2023-03-08T19:14:11.949Z,93618.72
2023-03-08T19:16:39.905Z,93612.47
2023-03-08T19:19:10.796Z,93622.28
2023-03-08T19:21:41.427Z,93598.03
2023-03-08T19:24:09.889Z,93615.66
2023-03-08T19:26:38.939Z,93638.13
2023-03-08T19:29:10.073Z,93634.50
2023-03-08T19:31:39.846Z,93625.53
2023-03-08T19:34:10.456Z,93626.91
2023-03-08T19:36:38.666Z,93611.94
2023-03-08T19:39:08.653Z,93598.84
2023-03-08T19:41:36.284Z,93613.66
2023-03-08T19:44:06.936Z,93611.72
2023-03-08T19:46:34.966Z,93593.78
2023-03-08T19:49:02.773Z,93610.56
2023-03-08T19:51:32.037Z,93597.56
2023-03-08T19:54:00.121Z,93595.81
2023-03-08T19:56:28.034Z,93592.13
2023-03-08T19:58:57.043Z,93614.06
2023-03-08T20:01:24.783Z,93606.66
2023-03-08T20:03:52.619Z,93604.97
2023-03-08T20:06:25.758Z,93605.78
2023-03-08T20:08:55.633Z,93612.81
2023-03-08T20:11:23.366Z,93600.28
2023-03-08T20:13:51.640Z,93595.50
2023-03-08T20:16:20.381Z,93593.19
2023-03-08T20:18:49.178Z,93586.31
2023-03-08T20:21:17.038Z,93591.09
2023-03-08T20:23:44.678Z,93586.81
2023-03-08T20:26:13.845Z,93594.66
2023-03-08T20:28:41.416Z,93590.22
2023-03-08T20:31:10.293Z,93583.56
2023-03-08T20:33:37.943Z,93579.56
2023-03-08T20:36:06.602Z,93596.72
2023-03-08T20:38:34.423Z,93596.47
2023-03-08T20:41:03.994Z,93602.34
2023-03-08T20:43:34.055Z,93588.16
2023-03-08T20:46:05.834Z,93581.31
2023-03-08T20:48:33.814Z,93576.25
2023-03-08T20:51:02.060Z,93575.09
2023-03-08T20:53:30.874Z,93565.28
2023-03-08T20:55:58.796Z,93571.69
2023-03-08T20:58:27.026Z,93568.72
2023-03-08T21:00:56.127Z,93583.59
2023-03-08T21:03:23.833Z,93578.22
2023-03-08T21:05:51.739Z,93562.31
2023-03-08T21:08:19.694Z,93566.88
2023-03-08T21:10:47.283Z,93558.31
2023-03-08T21:13:14.863Z,93554.53
2023-03-08T21:15:42.913Z,93558.84
2023-03-08T21:18:11.872Z,93570.09
2023-03-08T21:20:39.768Z,93552.56
2023-03-08T21:23:07.571Z,93555.34
2023-03-08T21:25:36.735Z,93558.31
2023-03-08T21:28:05.636Z,93552.81
2023-03-08T21:30:33.361Z,93555.22
2023-03-08T21:33:00.948Z,93553.28
2023-03-08T21:35:29.869Z,93545.38
2023-03-08T21:37:57.560Z,93549.25
2023-03-08T21:40:25.160Z,93538.94
2023-03-08T21:42:53.298Z,93547.06
2023-03-08T21:45:21.056Z,93544.78
2023-03-08T21:47:48.830Z,93526.03
2023-03-08T21:50:16.689Z,93521.75
2023-03-08T21:52:45.638Z,93515.34
2023-03-08T21:55:13.285Z,93514.16
2023-03-08T21:57:41.057Z,93521.06
2023-03-08T22:00:11.364Z,93527.09
2023-03-08T22:03:01.521Z,93520.69
2023-03-08T22:05:30.514Z,93518.72
2023-03-08T22:07:59.768Z,93513.91
2023-03-08T22:10:27.366Z,93500.78
2023-03-08T22:12:55.191Z,93510.97
2023-03-08T22:15:22.985Z,93501.72
2023-03-08T22:17:50.932Z,93487.91
2023-03-08T22:20:18.750Z,93480.31
2023-03-08T22:22:47.221Z,93476.31
2023-03-08T22:25:16.252Z,93498.78
2023-03-08T22:27:44.086Z,93496.03
2023-03-08T22:30:12.816Z,93493.94
2023-03-08T22:32:41.970Z,93495.09
2023-03-08T22:35:11.733Z,93489.03
2023-03-08T22:37:40.069Z,93483.63
2023-03-08T22:40:11.140Z,93487.03
2023-03-08T22:42:40.240Z,93482.00
2023-03-08T22:45:09.437Z,93491.59
2023-03-08T22:47:37.168Z,93480.78
2023-03-08T22:50:05.459Z,93474.47
2023-03-08T22:52:33.347Z,93475.03
2023-03-08T22:55:00.935Z,93474.41
2023-03-08T22:57:28.662Z,93478.22
2023-03-08T22:59:58.012Z,93476.78
2023-03-08T23:02:26.613Z,93475.09
2023-03-08T23:04:57.491Z,93481.09
2023-03-08T23:07:25.230Z,93476.59
2023-03-08T23:09:53.278Z,93484.41
2023-03-08T23:12:20.964Z,93478.00
2023-03-08T23:14:48.536Z,93487.75
2023-03-08T23:17:18.526Z,93482.31
2023-03-08T23:19:46.242Z,93470.50
2023-03-08T23:22:13.905Z,93499.44
2023-03-08T23:24:41.538Z,93498.31
2023-03-08T23:27:09.118Z,93509.59
2023-03-08T23:29:37.380Z,93500.88
2023-03-08T23:32:06.309Z,93505.34
2023-03-08T23:34:35.721Z,93510.47
2023-03-08T23:37:04.186Z,93506.16
2023-03-08T23:39:34.895Z,93504.72
2023-03-08T23:42:02.472Z,93494.97
2023-03-08T23:44:30.293Z,93500.50
2023-03-08T23:46:57.918Z,93490.88
2023-03-08T23:49:25.773Z,93503.13
2023-03-08T23:51:54.716Z,93509.91
2023-03-08T23:54:22.385Z,93499.91
2023-03-08T23:56:49.948Z,93493.06
2023-03-08T23:59:21.282Z,93506.19
